createdAt,value
2022-11-05T00:01:24.634Z,16.86
2022-11-05T00:04:46.877Z,16.82
2022-11-05T00:08:10.651Z,16.91
2022-11-05T00:11:17.885Z,16.86
2022-11-05T00:14:39.524Z,16.79
2022-11-05T00:17:42.600Z,16.74
2022-11-05T00:20:44.640Z,16.75
2022-11-05T00:24:05.510Z,16.62
2022-11-05T00:27:08.174Z,16.57
2022-11-05T00:30:12.518Z,16.56
2022-11-05T00:33:16.092Z,16.59
2022-11-05T00:36:32.294Z,16.44
2022-11-05T00:39:34.570Z,16.57
2022-11-05T00:42:55.487Z,16.45
2022-11-05T00:45:57.926Z,16.48
2022-11-05T00:49:19.753Z,16.43
2022-11-05T00:52:41.169Z,16.53
2022-11-05T00:55:46.575Z,16.37
2022-11-05T00:58:50.115Z,16.45
2022-11-05T01:01:53.710Z,16.48
2022-11-05T01:04:55.751Z,16.49
2022-11-05T01:07:58.696Z,16.47
2022-11-05T01:11:00.938Z,16.46
2022-11-05T01:14:08.667Z,16.44
2022-11-05T01:17:10.731Z,16.40
2022-11-05T01:20:12.943Z,16.42
2022-11-05T01:23:15.468Z,16.41
2022-11-05T01:26:17.884Z,16.31
2022-11-05T01:29:20.077Z,16.32
2022-11-05T01:32:22.236Z,16.31
2022-11-05T01:35:24.287Z,16.31
2022-11-05T01:38:26.473Z,16.38
2022-11-05T01:41:28.535Z,16.40
2022-11-05T01:44:56.802Z,16.50
2022-11-05T01:48:05.878Z,16.44
2022-11-05T01:51:14.709Z,16.49
2022-11-05T01:54:20.983Z,16.41
2022-11-05T01:57:23.192Z,16.16
2022-11-05T02:00:25.267Z,16.50
2022-11-05T02:03:28.582Z,16.38
2022-11-05T02:06:38.045Z,16.30
2022-11-05T02:09:52.379Z,16.33
2022-11-05T02:12:54.907Z,16.33
2022-11-05T02:16:12.902Z,16.28
2022-11-05T02:19:53.843Z,16.32
2022-11-05T02:23:49.241Z,16.30
2022-11-05T02:27:19.210Z,16.40
2022-11-05T02:31:07.519Z,16.27
2022-11-05T02:34:44.268Z,16.41
2022-11-05T02:37:54.460Z,16.38
2022-11-05T02:41:06.827Z,16.40
2022-11-05T02:44:19.763Z,16.40
2022-11-05T02:48:12.907Z,16.38
2022-11-05T02:51:26.897Z,16.35
2022-11-05T02:54:43.664Z,16.35
2022-11-05T02:57:47.728Z,16.26
2022-11-05T03:00:57.106Z,16.30
2022-11-05T03:04:06.519Z,16.23
2022-11-05T03:07:36.569Z,16.26
2022-11-05T03:11:01.467Z,16.16
2022-11-05T03:14:15.274Z,16.24
2022-11-05T03:17:35.421Z,16.38
2022-11-05T03:21:02.261Z,16.35
2022-11-05T03:24:13.576Z,16.35
2022-11-05T03:27:20.138Z,16.37
2022-11-05T03:30:22.513Z,16.32
2022-11-05T03:33:29.755Z,16.36
2022-11-05T03:36:39.753Z,16.29
2022-11-05T03:39:52.251Z,16.28
2022-11-05T03:42:58.134Z,16.23
2022-11-05T03:46:05.672Z,16.17
2022-11-05T03:49:16.033Z,16.16
2022-11-05T03:52:22.086Z,16.18
2022-11-05T03:55:32.727Z,16.07
2022-11-05T03:58:36.469Z,16.20
2022-11-05T04:01:40.255Z,16.15
2022-11-05T04:04:46.014Z,16.22
2022-11-05T04:08:13.912Z,16.19
2022-11-05T04:11:35.330Z,16.25
2022-11-05T04:14:39.627Z,16.30
2022-11-05T04:17:41.872Z,16.34
2022-11-05T04:21:02.807Z,16.19
2022-11-05T04:24:13.454Z,16.10
2022-11-05T04:27:15.639Z,16.36
2022-11-05T04:30:19.229Z,16.09
2022-11-05T04:33:21.702Z,16.21
2022-11-05T04:36:23.861Z,16.17
2022-11-05T04:39:26.051Z,16.25
2022-11-05T04:42:28.474Z,16.19
2022-11-05T04:45:35.962Z,16.26
2022-11-05T04:48:38.050Z,16.17
2022-11-05T04:51:43.864Z,16.27
2022-11-05T04:54:46.159Z,16.39
2022-11-05T04:57:52.659Z,16.36
2022-11-05T05:00:54.901Z,16.35
2022-11-05T05:03:59.022Z,16.77
2022-11-05T05:07:02.409Z,17.24
2022-11-05T05:10:06.054Z,17.57
2022-11-05T05:13:10.692Z,17.94
2022-11-05T05:16:27.651Z,18.44
2022-11-05T05:19:30.173Z,18.66
2022-11-05T05:22:32.439Z,18.93
2022-11-05T05:25:35.318Z,19.06
2022-11-05T05:28:37.510Z,18.92
2022-11-05T05:31:40.203Z,18.90
2022-11-05T05:34:42.327Z,19.00
2022-11-05T05:37:44.514Z,19.27
2022-11-05T05:40:46.992Z,19.59
2022-11-05T05:43:49.123Z,19.80
2022-11-05T05:46:51.218Z,20.02
2022-11-05T05:49:53.562Z,20.07
2022-11-05T05:52:55.678Z,20.42
2022-11-05T05:55:58.563Z,20.67
2022-11-05T05:59:00.828Z,20.89
2022-11-05T06:02:03.460Z,21.06
2022-11-05T06:05:08.247Z,21.10
2022-11-05T06:08:13.334Z,21.04
2022-11-05T06:11:16.188Z,20.94
2022-11-05T06:14:18.368Z,20.89
2022-11-05T06:17:20.584Z,20.90
2022-11-05T06:20:24.060Z,20.99
2022-11-05T06:23:26.250Z,21.19
2022-11-05T06:26:28.768Z,21.08
2022-11-05T06:29:30.946Z,20.98
2022-11-05T06:32:34.141Z,21.09
2022-11-05T06:35:40.632Z,21.10
2022-11-05T06:38:45.843Z,20.87
2022-11-05T06:42:16.662Z,20.64
2022-11-05T06:45:13.594Z,20.51
2022-11-05T06:48:16.530Z,20.34
2022-11-05T06:51:21.798Z,20.25
2022-11-05T06:54:28.440Z,20.16
2022-11-05T06:57:30.824Z,20.20
2022-11-05T07:01:03.066Z,20.06
2022-11-05T07:04:08.214Z,19.95
2022-11-05T07:07:10.588Z,20.00
2022-11-05T07:10:20.441Z,19.94
2022-11-05T07:13:22.601Z,19.79
2022-11-05T07:16:31.856Z,19.67
2022-11-05T07:19:33.923Z,19.70
2022-11-05T07:22:36.612Z,19.83
2022-11-05T07:25:39.237Z,19.74
2022-11-05T07:28:51.966Z,19.70
2022-11-05T07:31:57.059Z,19.72
2022-11-05T07:34:59.245Z,19.65
2022-11-05T07:38:08.852Z,19.42
2022-11-05T07:41:10.843Z,19.45
2022-11-05T07:44:14.495Z,19.33
2022-11-05T07:47:16.764Z,19.38
2022-11-05T07:50:26.564Z,19.45
2022-11-05T07:53:28.675Z,19.37
2022-11-05T07:56:33.455Z,19.24
2022-11-05T07:59:36.783Z,19.25
2022-11-05T08:02:40.235Z,19.15
2022-11-05T08:05:46.089Z,19.26
2022-11-05T08:08:48.253Z,19.21
2022-11-05T08:11:52.907Z,19.31
2022-11-05T08:14:58.719Z,19.31
2022-11-05T08:18:11.791Z,19.34
2022-11-05T08:21:14.052Z,19.34
2022-11-05T08:24:16.171Z,19.43
2022-11-05T08:27:18.267Z,19.24
2022-11-05T08:30:21.946Z,19.17
2022-11-05T08:33:27.731Z,19.25
2022-11-05T08:36:32.747Z,19.22
2022-11-05T08:39:34.892Z,19.27
2022-11-05T08:42:41.261Z,19.31
2022-11-05T08:45:43.456Z,19.33
2022-11-05T08:48:45.888Z,19.56
2022-11-05T08:51:48.131Z,19.76
2022-11-05T08:54:50.360Z,19.74
2022-11-05T08:58:00.618Z,19.80
2022-11-05T09:01:05.589Z,20.11
2022-11-05T09:04:10.495Z,20.47
2022-11-05T09:07:12.612Z,20.74
2022-11-05T09:10:14.869Z,20.77
2022-11-05T09:13:23.873Z,20.79
2022-11-05T09:16:37.065Z,20.86
2022-11-05T09:19:40.014Z,20.85
2022-11-05T09:22:43.603Z,20.84
2022-11-05T09:25:46.308Z,20.73
2022-11-05T09:28:48.429Z,20.77
2022-11-05T09:31:50.405Z,20.75
2022-11-05T09:34:52.441Z,20.70
2022-11-05T09:37:59.750Z,20.69
2022-11-05T09:41:05.009Z,20.65
2022-11-05T09:44:20.995Z,20.63
2022-11-05T09:47:44.767Z,20.55
2022-11-05T09:50:46.900Z,20.47
2022-11-05T09:53:49.908Z,20.43
2022-11-05T09:57:43.656Z,20.34
2022-11-05T10:00:25.557Z,20.31
2022-11-05T10:03:30.196Z,20.39
2022-11-05T10:06:32.345Z,20.31
2022-11-05T10:09:45.386Z,20.25
2022-11-05T10:12:53.077Z,20.26
2022-11-05T10:16:02.752Z,20.20
2022-11-05T10:19:22.221Z,20.21
2022-11-05T10:22:25.417Z,20.10
2022-11-05T10:25:33.220Z,20.07
2022-11-05T10:28:36.073Z,19.92
2022-11-05T10:31:38.202Z,19.93
2022-11-05T10:34:44.085Z,19.96
2022-11-05T10:37:51.165Z,20.03
2022-11-05T10:41:15.619Z,19.93
2022-11-05T10:44:23.288Z,19.95
2022-11-05T10:48:01.361Z,19.90
2022-11-05T10:51:03.493Z,19.82
2022-11-05T10:54:38.347Z,19.77
2022-11-05T10:57:41.623Z,19.75
2022-11-05T11:04:41.242Z,19.66
2022-11-05T11:07:58.211Z,19.82
2022-11-05T11:11:07.848Z,19.79
2022-11-05T11:14:12.827Z,19.81
2022-11-05T11:17:32.536Z,19.79
2022-11-05T11:20:34.737Z,19.71
2022-11-05T11:23:39.347Z,19.58
2022-11-05T11:26:42.377Z,19.60
2022-11-05T11:29:56.766Z,19.56
2022-11-05T11:33:12.073Z,19.61
2022-11-05T11:36:26.506Z,19.49
2022-11-05T11:39:35.217Z,19.48
2022-11-05T11:42:41.054Z,19.52
2022-11-05T11:45:49.832Z,19.43
2022-11-05T11:48:51.932Z,19.38
2022-11-05T11:52:11.275Z,19.36
2022-11-05T11:55:18.654Z,19.35
2022-11-05T11:58:23.505Z,19.32
2022-11-05T12:01:59.568Z,19.32
2022-11-05T12:05:38.218Z,19.36
2022-11-05T12:09:13.153Z,19.42
2022-11-05T12:12:17.991Z,19.43
2022-11-05T12:15:57.952Z,19.38
2022-11-05T12:19:21.185Z,19.39
2022-11-05T12:22:31.294Z,19.37
2022-11-05T12:25:44.347Z,19.36
2022-11-05T12:29:18.318Z,19.32
2022-11-05T12:32:35.631Z,19.34
2022-11-05T12:36:05.196Z,19.31
2022-11-05T12:39:20.489Z,19.28
2022-11-05T12:42:28.536Z,19.26
2022-11-05T12:45:43.486Z,19.21
2022-11-05T12:49:09.235Z,19.27
2022-11-05T12:52:50.262Z,19.28
2022-11-05T12:55:59.591Z,19.28
2022-11-05T12:59:30.348Z,19.28
2022-11-05T13:02:38.544Z,19.30
2022-11-05T13:05:47.310Z,19.24
2022-11-05T13:09:07.470Z,19.20
2022-11-05T13:12:16.919Z,19.16
2022-11-05T13:15:44.042Z,19.05
2022-11-05T13:19:05.761Z,18.94
2022-11-05T13:22:46.313Z,18.98
2022-11-05T13:26:26.385Z,19.04
2022-11-05T13:34:24.855Z,19.07
2022-11-05T13:37:50.315Z,19.09
2022-11-05T13:41:20.758Z,19.05
2022-11-05T13:44:48.501Z,18.96
2022-11-05T13:48:25.362Z,18.95
2022-11-05T13:51:48.575Z,18.95
2022-11-05T13:55:17.202Z,18.93
2022-11-05T13:59:05.221Z,18.96
2022-11-05T14:02:22.194Z,18.96
2022-11-05T14:05:39.909Z,18.97
2022-11-05T14:13:34.171Z,18.87
2022-11-05T14:17:15.099Z,18.79
2022-11-05T14:20:32.602Z,18.81
2022-11-05T14:23:40.730Z,18.67
2022-11-05T14:27:08.322Z,18.75
2022-11-05T14:30:47.607Z,18.79
2022-11-05T14:34:12.822Z,18.79
2022-11-05T14:37:37.816Z,18.77
2022-11-05T14:40:42.942Z,18.81
2022-11-05T14:44:09.131Z,18.79
2022-11-05T14:47:24.197Z,18.54
2022-11-05T14:50:43.017Z,18.71
2022-11-05T14:53:47.861Z,18.58
2022-11-05T14:57:02.672Z,18.68
2022-11-05T15:00:25.654Z,18.57
2022-11-05T15:03:45.342Z,18.66
2022-11-05T15:07:05.999Z,18.69
2022-11-05T15:10:18.413Z,18.59
2022-11-05T15:14:34.772Z,17.95
2022-11-05T15:21:17.626Z,18.58
2022-11-05T15:28:09.904Z,18.48
2022-11-05T15:31:36.607Z,18.48
2022-11-05T15:34:52.831Z,18.22
2022-11-05T15:38:34.760Z,18.42
2022-11-05T15:41:36.855Z,18.46
2022-11-05T15:44:41.147Z,18.49
2022-11-05T15:47:46.568Z,18.45
2022-11-05T15:50:55.385Z,18.40
2022-11-05T15:54:29.158Z,18.40
2022-11-05T15:57:40.466Z,18.34
2022-11-05T16:04:20.041Z,18.40
2022-11-05T16:07:25.953Z,18.46
2022-11-05T16:10:33.892Z,18.39
2022-11-05T16:13:45.961Z,18.29
2022-11-05T16:16:48.288Z,18.27
2022-11-05T16:19:51.096Z,18.30
2022-11-05T16:22:56.120Z,18.16
2022-11-05T16:25:59.006Z,18.16
2022-11-05T16:29:10.542Z,18.28
2022-11-05T16:32:19.381Z,18.33
2022-11-05T16:35:28.153Z,18.37
2022-11-05T16:38:30.274Z,18.13
2022-11-05T16:41:32.610Z,18.35
2022-11-05T16:44:37.779Z,18.31
2022-11-05T16:47:39.895Z,18.37
2022-11-05T16:50:42.701Z,18.27
2022-11-05T16:53:44.854Z,18.37
2022-11-05T16:56:50.412Z,18.41
2022-11-05T16:59:54.253Z,18.38
2022-11-05T17:02:56.598Z,18.30
2022-11-05T17:05:58.817Z,18.24
2022-11-05T17:09:00.978Z,18.16
2022-11-05T17:12:03.490Z,18.25
2022-11-05T17:15:26.619Z,18.22
2022-11-05T17:18:28.600Z,18.06
2022-11-05T17:21:30.633Z,18.13
2022-11-05T17:24:32.856Z,17.94
2022-11-05T17:27:34.915Z,18.14
2022-11-05T17:30:41.147Z,18.22
2022-11-05T17:33:44.331Z,18.11
2022-11-05T17:36:46.354Z,18.12
2022-11-05T17:39:48.425Z,18.11
2022-11-05T17:42:51.716Z,18.13
2022-11-05T17:45:53.719Z,18.10
2022-11-05T17:48:55.772Z,18.19
2022-11-05T17:51:57.752Z,18.21
2022-11-05T17:54:59.747Z,18.23
2022-11-05T17:58:14.934Z,18.22
2022-11-05T18:01:43.657Z,18.36
2022-11-05T18:04:50.933Z,18.61
2022-11-05T18:07:53.313Z,18.96
2022-11-05T18:10:57.218Z,19.05
2022-11-05T18:14:01.575Z,19.48
2022-11-05T18:17:09.495Z,19.95
2022-11-05T18:21:02.730Z,20.26
2022-11-05T18:24:08.712Z,20.41
2022-11-05T18:27:20.317Z,20.52
2022-11-05T18:30:51.171Z,20.39
2022-11-05T18:38:01.556Z,19.76
2022-11-05T18:45:15.918Z,19.54
2022-11-05T18:48:19.107Z,19.34
2022-11-05T18:51:22.979Z,19.26
2022-11-05T18:54:25.405Z,19.11
2022-11-05T18:57:48.000Z,19.05
2022-11-05T19:00:52.036Z,19.03
2022-11-05T19:04:22.630Z,19.00
2022-11-05T19:07:37.232Z,18.75
2022-11-05T19:11:49.789Z,18.88
2022-11-05T19:14:57.936Z,18.78
2022-11-05T19:18:05.744Z,18.66
2022-11-05T19:21:18.702Z,18.48
2022-11-05T19:24:32.735Z,18.55
2022-11-05T19:27:58.381Z,18.45
2022-11-05T19:31:00.663Z,18.53
2022-11-05T19:34:05.666Z,18.46
2022-11-05T19:37:41.546Z,18.55
2022-11-05T19:40:43.799Z,18.40
2022-11-05T19:43:46.557Z,18.48
2022-11-05T19:46:48.643Z,18.47
2022-11-05T19:49:50.705Z,18.40
2022-11-05T19:52:52.781Z,18.43
2022-11-05T19:56:02.580Z,18.31
2022-11-05T20:00:40.880Z,18.37
2022-11-05T20:04:14.833Z,17.84
2022-11-05T20:07:21.475Z,17.90
2022-11-05T20:10:30.151Z,18.30
2022-11-05T20:13:33.342Z,18.17
2022-11-05T20:16:41.560Z,18.24
2022-11-05T20:24:24.355Z,18.16
2022-11-05T20:27:35.520Z,18.21
2022-11-05T20:34:45.574Z,18.21
2022-11-05T20:37:54.081Z,18.13
2022-11-05T20:41:22.071Z,18.19
2022-11-05T20:44:24.779Z,18.09
2022-11-05T20:47:28.071Z,17.97
2022-11-05T20:50:31.183Z,18.03
2022-11-05T20:56:57.271Z,18.12
2022-11-05T20:59:59.305Z,18.07
2022-11-05T21:03:02.088Z,17.98
2022-11-05T21:06:09.115Z,17.99
2022-11-05T21:09:11.465Z,18.04
2022-11-05T21:13:30.535Z,17.98
2022-11-05T21:16:35.622Z,17.99
2022-11-05T21:19:40.425Z,18.03
2022-11-05T21:22:46.188Z,18.04
2022-11-05T21:25:51.918Z,18.09
2022-11-05T21:28:53.899Z,17.99
2022-11-05T21:32:00.939Z,18.02
2022-11-05T21:35:06.878Z,18.14
2022-11-05T21:38:08.889Z,18.06
2022-11-05T21:41:17.434Z,18.20
2022-11-05T21:44:25.147Z,18.41
2022-11-05T21:47:31.709Z,18.57
2022-11-05T21:51:00.223Z,18.63
2022-11-05T21:54:22.510Z,18.64
2022-11-05T21:57:44.030Z,18.66
2022-11-05T22:00:46.075Z,18.57
2022-11-05T22:03:48.060Z,18.51
2022-11-05T22:06:50.028Z,18.39
2022-11-05T22:09:52.545Z,18.44
2022-11-05T22:12:54.768Z,18.46
2022-11-05T22:15:57.253Z,18.39
2022-11-05T22:18:59.981Z,18.39
2022-11-05T22:22:02.485Z,18.27
2022-11-05T22:25:04.889Z,18.39
2022-11-05T22:28:07.071Z,18.39
2022-11-05T22:31:13.989Z,18.46
2022-11-05T22:34:16.112Z,18.43
2022-11-05T22:37:18.252Z,18.22
2022-11-05T22:40:23.707Z,18.36
2022-11-05T22:43:26.267Z,18.13
2022-11-05T22:46:28.407Z,18.32
2022-11-05T22:49:33.633Z,18.35
2022-11-05T22:52:36.383Z,18.32
2022-11-05T22:55:41.500Z,18.36
2022-11-05T22:58:43.882Z,18.34
2022-11-05T23:01:46.936Z,18.36
2022-11-05T23:04:51.680Z,18.35
2022-11-05T23:08:12.443Z,18.33
2022-11-05T23:11:38.935Z,18.30
2022-11-05T23:14:40.927Z,18.18
2022-11-05T23:18:01.601Z,18.22
2022-11-05T23:21:23.324Z,18.22
2022-11-05T23:24:25.421Z,18.15
2022-11-05T23:27:33.939Z,18.22
2022-11-05T23:30:36.994Z,18.23
2022-11-05T23:33:39.127Z,18.19
2022-11-05T23:36:59.383Z,18.18
2022-11-05T23:40:01.606Z,18.13
2022-11-05T23:43:22.490Z,18.08
2022-11-05T23:46:43.139Z,18.08
2022-11-05T23:49:45.153Z,18.10
2022-11-05T23:52:47.176Z,18.03
2022-11-05T23:55:49.862Z,18.07
2022-11-05T23:58:51.984Z,18.12
